sensor_id;sensor_type;location;lat;lon;timestamp;P1;durP1;ratioP1;P2;durP2;ratioP2
4569;SDS011;2297;51.442;6.996;2022-08-19T00:01:33;6.65;;;5.43;;
4569;SDS011;2297;51.442;6.996;2022-08-19T00:04:02;7.80;;;4.72;;
4569;SDS011;2297;51.442;6.996;2022-08-19T00:06:33;9.55;;;5.57;;
4569;SDS011;2297;51.442;6.996;2022-08-19T00:09:00;6.60;;;5.00;;
4569;SDS011;2297;51.442;6.996;2022-08-19T00:11:28;6.72;;;4.88;;
4569;SDS011;2297;51.442;6.996;2022-08-19T00:13:55;8.85;;;5.00;;
4569;SDS011;2297;51.442;6.996;2022-08-19T00:16:23;5.80;;;4.97;;
4569;SDS011;2297;51.442;6.996;2022-08-19T00:18:51;9.13;;;5.32;;
4569;SDS011;2297;51.442;6.996;2022-08-19T00:21:18;10.15;;;5.30;;
4569;SDS011;2297;51.442;6.996;2022-08-19T00:23:46;9.32;;;5.13;;
4569;SDS011;2297;51.442;6.996;2022-08-19T00:26:13;7.38;;;5.45;;
4569;SDS011;2297;51.442;6.996;2022-08-19T00:28:40;6.18;;;5.13;;
4569;SDS011;2297;51.442;6.996;2022-08-19T00:31:07;6.68;;;5.32;;
4569;SDS011;2297;51.442;6.996;2022-08-19T00:33:34;9.77;;;5.63;;
4569;SDS011;2297;51.442;6.996;2022-08-19T00:36:02;8.45;;;5.50;;
4569;SDS011;2297;51.442;6.996;2022-08-19T00:38:31;8.68;;;5.85;;
4569;SDS011;2297;51.442;6.996;2022-08-19T00:40:59;7.03;;;5.78;;
4569;SDS011;2297;51.442;6.996;2022-08-19T00:43:27;7.70;;;6.15;;
4569;SDS011;2297;51.442;6.996;2022-08-19T00:45:54;6.97;;;5.57;;
4569;SDS011;2297;51.442;6.996;2022-08-19T00:48:21;8.90;;;5.97;;
4569;SDS011;2297;51.442;6.996;2022-08-19T00:50:48;8.88;;;6.47;;
4569;SDS011;2297;51.442;6.996;2022-08-19T00:53:19;8.75;;;5.82;;
4569;SDS011;2297;51.442;6.996;2022-08-19T00:55:49;10.88;;;6.80;;
4569;SDS011;2297;51.442;6.996;2022-08-19T00:58:19;8.60;;;6.70;;
4569;SDS011;2297;51.442;6.996;2022-08-19T01:00:58;8.30;;;5.93;;
4569;SDS011;2297;51.442;6.996;2022-08-19T01:03:25;7.28;;;5.93;;
4569;SDS011;2297;51.442;6.996;2022-08-19T01:05:52;11.40;;;6.47;;
4569;SDS011;2297;51.442;6.996;2022-08-19T01:08:21;10.15;;;6.93;;
4569;SDS011;2297;51.442;6.996;2022-08-19T01:10:50;8.45;;;6.18;;
4569;SDS011;2297;51.442;6.996;2022-08-19T01:13:21;8.82;;;6.22;;
4569;SDS011;2297;51.442;6.996;2022-08-19T01:15:51;9.15;;;6.75;;
4569;SDS011;2297;51.442;6.996;2022-08-19T01:18:21;10.23;;;7.25;;
4569;SDS011;2297;51.442;6.996;2022-08-19T01:20:48;8.20;;;6.75;;
4569;SDS011;2297;51.442;6.996;2022-08-19T01:23:18;9.10;;;6.93;;
4569;SDS011;2297;51.442;6.996;2022-08-19T01:25:46;8.73;;;6.20;;
4569;SDS011;2297;51.442;6.996;2022-08-19T01:28:17;10.35;;;6.88;;
4569;SDS011;2297;51.442;6.996;2022-08-19T01:30:45;8.60;;;6.93;;
4569;SDS011;2297;51.442;6.996;2022-08-19T01:33:12;8.05;;;6.85;;
4569;SDS011;2297;51.442;6.996;2022-08-19T01:35:39;10.57;;;7.43;;
4569;SDS011;2297;51.442;6.996;2022-08-19T01:38:07;11.80;;;7.00;;
4569;SDS011;2297;51.442;6.996;2022-08-19T01:40:38;9.07;;;6.43;;
4569;SDS011;2297;51.442;6.996;2022-08-19T01:43:07;8.68;;;7.18;;
4569;SDS011;2297;51.442;6.996;2022-08-19T01:45:34;11.35;;;6.90;;
4569;SDS011;2297;51.442;6.996;2022-08-19T01:48:01;9.80;;;6.90;;
4569;SDS011;2297;51.442;6.996;2022-08-19T01:50:29;9.95;;;7.32;;
4569;SDS011;2297;51.442;6.996;2022-08-19T01:52:56;9.95;;;6.80;;
4569;SDS011;2297;51.442;6.996;2022-08-19T01:55:24;9.18;;;7.28;;
4569;SDS011;2297;51.442;6.996;2022-08-19T01:57:54;8.82;;;7.30;;
4569;SDS011;2297;51.442;6.996;2022-08-19T02:00:24;8.95;;;7.13;;
4569;SDS011;2297;51.442;6.996;2022-08-19T02:02:54;12.63;;;7.57;;
4569;SDS011;2297;51.442;6.996;2022-08-19T02:05:20;11.43;;;7.65;;
4569;SDS011;2297;51.442;6.996;2022-08-19T02:10:38;11.02;;;7.47;;
4569;SDS011;2297;51.442;6.996;2022-08-19T02:13:07;8.30;;;7.03;;
4569;SDS011;2297;51.442;6.996;2022-08-19T02:15:34;12.40;;;7.35;;
4569;SDS011;2297;51.442;6.996;2022-08-19T02:18:01;9.95;;;7.82;;
4569;SDS011;2297;51.442;6.996;2022-08-19T02:20:28;10.43;;;7.75;;
4569;SDS011;2297;51.442;6.996;2022-08-19T02:22:54;10.60;;;7.88;;
4569;SDS011;2297;51.442;6.996;2022-08-19T02:25:21;10.27;;;7.45;;
4569;SDS011;2297;51.442;6.996;2022-08-19T02:27:48;8.93;;;7.05;;
4569;SDS011;2297;51.442;6.996;2022-08-19T02:30:16;9.88;;;7.45;;
4569;SDS011;2297;51.442;6.996;2022-08-19T02:32:44;8.75;;;7.40;;
4569;SDS011;2297;51.442;6.996;2022-08-19T02:35:11;9.85;;;7.63;;
4569;SDS011;2297;51.442;6.996;2022-08-19T02:43:22;10.18;;;7.65;;
4569;SDS011;2297;51.442;6.996;2022-08-19T02:45:50;10.32;;;7.53;;
4569;SDS011;2297;51.442;6.996;2022-08-19T02:48:18;10.60;;;7.88;;
4569;SDS011;2297;51.442;6.996;2022-08-19T02:50:47;14.20;;;8.43;;
4569;SDS011;2297;51.442;6.996;2022-08-19T02:53:17;10.60;;;7.45;;
4569;SDS011;2297;51.442;6.996;2022-08-19T02:58:57;8.27;;;7.40;;
4569;SDS011;2297;51.442;6.996;2022-08-19T03:01:27;11.82;;;8.05;;
4569;SDS011;2297;51.442;6.996;2022-08-19T03:03:56;13.68;;;7.43;;
4569;SDS011;2297;51.442;6.996;2022-08-19T03:06:24;11.30;;;8.00;;
4569;SDS011;2297;51.442;6.996;2022-08-19T03:08:51;13.07;;;8.00;;
4569;SDS011;2297;51.442;6.996;2022-08-19T03:11:20;9.02;;;7.47;;
4569;SDS011;2297;51.442;6.996;2022-08-19T03:13:48;11.60;;;8.45;;
4569;SDS011;2297;51.442;6.996;2022-08-19T03:16:15;11.60;;;7.95;;
4569;SDS011;2297;51.442;6.996;2022-08-19T03:18:44;10.95;;;7.95;;
4569;SDS011;2297;51.442;6.996;2022-08-19T03:21:14;12.82;;;9.23;;
4569;SDS011;2297;51.442;6.996;2022-08-19T03:23:41;11.23;;;8.05;;
4569;SDS011;2297;51.442;6.996;2022-08-19T03:26:08;11.10;;;8.85;;
4569;SDS011;2297;51.442;6.996;2022-08-19T03:28:35;12.93;;;8.63;;
4569;SDS011;2297;51.442;6.996;2022-08-19T03:31:03;9.23;;;8.13;;
4569;SDS011;2297;51.442;6.996;2022-08-19T03:33:31;12.85;;;8.60;;
4569;SDS011;2297;51.442;6.996;2022-08-19T03:36:01;9.27;;;7.80;;
4569;SDS011;2297;51.442;6.996;2022-08-19T03:38:30;11.63;;;8.00;;
4569;SDS011;2297;51.442;6.996;2022-08-19T03:40:57;11.57;;;8.57;;
4569;SDS011;2297;51.442;6.996;2022-08-19T03:43:24;13.05;;;8.55;;
4569;SDS011;2297;51.442;6.996;2022-08-19T03:45:59;12.23;;;8.45;;
4569;SDS011;2297;51.442;6.996;2022-08-19T03:48:26;11.27;;;7.97;;
4569;SDS011;2297;51.442;6.996;2022-08-19T03:50:52;12.13;;;8.27;;
4569;SDS011;2297;51.442;6.996;2022-08-19T03:53:20;10.13;;;8.27;;
4569;SDS011;2297;51.442;6.996;2022-08-19T03:55:47;10.82;;;7.72;;
4569;SDS011;2297;51.442;6.996;2022-08-19T03:58:14;13.45;;;8.88;;
4569;SDS011;2297;51.442;6.996;2022-08-19T04:00:41;12.63;;;9.80;;
4569;SDS011;2297;51.442;6.996;2022-08-19T04:03:08;12.50;;;10.00;;
4569;SDS011;2297;51.442;6.996;2022-08-19T04:05:35;13.52;;;10.77;;
4569;SDS011;2297;51.442;6.996;2022-08-19T04:08:02;14.55;;;9.93;;
4569;SDS011;2297;51.442;6.996;2022-08-19T04:10:34;12.75;;;10.13;;
4569;SDS011;2297;51.442;6.996;2022-08-19T04:13:01;20.70;;;16.38;;
4569;SDS011;2297;51.442;6.996;2022-08-19T04:15:29;21.70;;;15.00;;
4569;SDS011;2297;51.442;6.996;2022-08-19T04:17:59;17.83;;;11.60;;
4569;SDS011;2297;51.442;6.996;2022-08-19T04:20:25;15.27;;;10.70;;
4569;SDS011;2297;51.442;6.996;2022-08-19T04:22:52;14.75;;;10.50;;
4569;SDS011;2297;51.442;6.996;2022-08-19T04:25:18;14.00;;;11.73;;
4569;SDS011;2297;51.442;6.996;2022-08-19T04:27:46;15.35;;;11.05;;
4569;SDS011;2297;51.442;6.996;2022-08-19T04:30:13;18.73;;;12.32;;
4569;SDS011;2297;51.442;6.996;2022-08-19T04:32:42;16.55;;;11.35;;
4569;SDS011;2297;51.442;6.996;2022-08-19T04:35:09;17.95;;;12.13;;
4569;SDS011;2297;51.442;6.996;2022-08-19T04:37:36;16.33;;;11.68;;
4569;SDS011;2297;51.442;6.996;2022-08-19T04:40:05;17.50;;;12.57;;
4569;SDS011;2297;51.442;6.996;2022-08-19T04:42:51;22.17;;;12.35;;
4569;SDS011;2297;51.442;6.996;2022-08-19T04:45:18;15.95;;;10.48;;
4569;SDS011;2297;51.442;6.996;2022-08-19T04:47:45;19.10;;;11.82;;
4569;SDS011;2297;51.442;6.996;2022-08-19T04:50:12;16.77;;;11.43;;
4569;SDS011;2297;51.442;6.996;2022-08-19T04:52:39;17.10;;;10.90;;
4569;SDS011;2297;51.442;6.996;2022-08-19T04:55:07;16.17;;;10.55;;
4569;SDS011;2297;51.442;6.996;2022-08-19T04:57:34;14.77;;;10.88;;
4569;SDS011;2297;51.442;6.996;2022-08-19T05:00:07;18.15;;;12.75;;
4569;SDS011;2297;51.442;6.996;2022-08-19T05:02:47;18.10;;;12.77;;
4569;SDS011;2297;51.442;6.996;2022-08-19T05:05:14;35.25;;;23.33;;
4569;SDS011;2297;51.442;6.996;2022-08-19T05:07:42;17.80;;;13.32;;
4569;SDS011;2297;51.442;6.996;2022-08-19T05:10:09;16.85;;;11.95;;
4569;SDS011;2297;51.442;6.996;2022-08-19T05:12:36;17.02;;;11.93;;
4569;SDS011;2297;51.442;6.996;2022-08-19T05:15:03;15.85;;;12.02;;
4569;SDS011;2297;51.442;6.996;2022-08-19T05:17:34;17.55;;;12.48;;
4569;SDS011;2297;51.442;6.996;2022-08-19T05:20:02;16.90;;;12.48;;
4569;SDS011;2297;51.442;6.996;2022-08-19T05:22:47;15.27;;;11.98;;
4569;SDS011;2297;51.442;6.996;2022-08-19T05:25:15;16.52;;;12.82;;
4569;SDS011;2297;51.442;6.996;2022-08-19T05:27:44;19.30;;;13.93;;
4569;SDS011;2297;51.442;6.996;2022-08-19T05:30:12;20.08;;;13.20;;
4569;SDS011;2297;51.442;6.996;2022-08-19T05:32:42;20.88;;;13.00;;
4569;SDS011;2297;51.442;6.996;2022-08-19T05:35:09;20.88;;;13.43;;
4569;SDS011;2297;51.442;6.996;2022-08-19T05:37:37;18.73;;;13.43;;
4569;SDS011;2297;51.442;6.996;2022-08-19T05:40:05;18.13;;;13.57;;
4569;SDS011;2297;51.442;6.996;2022-08-19T05:42:32;17.08;;;12.75;;
4569;SDS011;2297;51.442;6.996;2022-08-19T05:45:00;22.15;;;14.00;;
4569;SDS011;2297;51.442;6.996;2022-08-19T05:47:26;21.58;;;13.48;;
4569;SDS011;2297;51.442;6.996;2022-08-19T05:49:54;18.15;;;12.60;;
4569;SDS011;2297;51.442;6.996;2022-08-19T05:52:21;18.95;;;13.07;;
4569;SDS011;2297;51.442;6.996;2022-08-19T05:54:48;23.10;;;14.48;;
4569;SDS011;2297;51.442;6.996;2022-08-19T05:57:16;20.17;;;14.60;;
4569;SDS011;2297;51.442;6.996;2022-08-19T05:59:42;21.05;;;14.00;;
4569;SDS011;2297;51.442;6.996;2022-08-19T06:02:10;23.58;;;14.27;;
4569;SDS011;2297;51.442;6.996;2022-08-19T06:04:38;22.35;;;15.10;;
4569;SDS011;2297;51.442;6.996;2022-08-19T06:07:08;27.83;;;16.95;;
4569;SDS011;2297;51.442;6.996;2022-08-19T06:09:35;29.08;;;17.83;;
4569;SDS011;2297;51.442;6.996;2022-08-19T06:12:03;26.10;;;17.20;;
4569;SDS011;2297;51.442;6.996;2022-08-19T06:14:30;24.90;;;17.90;;
4569;SDS011;2297;51.442;6.996;2022-08-19T06:16:59;29.50;;;20.00;;
4569;SDS011;2297;51.442;6.996;2022-08-19T06:19:26;24.85;;;18.45;;
4569;SDS011;2297;51.442;6.996;2022-08-19T06:25:13;29.48;;;20.33;;
4569;SDS011;2297;51.442;6.996;2022-08-19T06:27:42;33.85;;;23.05;;
4569;SDS011;2297;51.442;6.996;2022-08-19T06:30:09;35.08;;;22.13;;
4569;SDS011;2297;51.442;6.996;2022-08-19T06:32:37;35.17;;;21.45;;
4569;SDS011;2297;51.442;6.996;2022-08-19T06:35:04;33.33;;;21.30;;
4569;SDS011;2297;51.442;6.996;2022-08-19T06:37:32;36.53;;;24.13;;
4569;SDS011;2297;51.442;6.996;2022-08-19T06:39:58;36.22;;;23.88;;
4569;SDS011;2297;51.442;6.996;2022-08-19T06:42:27;32.67;;;21.25;;
4569;SDS011;2297;51.442;6.996;2022-08-19T06:44:53;39.03;;;23.63;;
4569;SDS011;2297;51.442;6.996;2022-08-19T06:47:20;37.28;;;24.70;;
4569;SDS011;2297;51.442;6.996;2022-08-19T06:49:48;34.53;;;22.80;;
4569;SDS011;2297;51.442;6.996;2022-08-19T06:52:14;35.42;;;24.23;;
4569;SDS011;2297;51.442;6.996;2022-08-19T06:54:41;37.30;;;24.27;;
4569;SDS011;2297;51.442;6.996;2022-08-19T06:57:08;36.28;;;24.33;;
4569;SDS011;2297;51.442;6.996;2022-08-19T06:59:41;35.85;;;23.98;;
4569;SDS011;2297;51.442;6.996;2022-08-19T07:02:08;37.47;;;25.27;;
4569;SDS011;2297;51.442;6.996;2022-08-19T07:04:35;37.17;;;25.67;;
4569;SDS011;2297;51.442;6.996;2022-08-19T07:07:04;38.33;;;25.77;;
4569;SDS011;2297;51.442;6.996;2022-08-19T07:09:35;40.88;;;26.45;;
4569;SDS011;2297;51.442;6.996;2022-08-19T07:12:03;38.47;;;25.50;;
4569;SDS011;2297;51.442;6.996;2022-08-19T07:14:31;38.55;;;24.55;;
4569;SDS011;2297;51.442;6.996;2022-08-19T07:17:02;42.55;;;25.85;;
4569;SDS011;2297;51.442;6.996;2022-08-19T07:19:30;36.45;;;24.02;;
4569;SDS011;2297;51.442;6.996;2022-08-19T07:21:57;38.75;;;25.98;;
4569;SDS011;2297;51.442;6.996;2022-08-19T07:24:25;34.30;;;23.92;;
4569;SDS011;2297;51.442;6.996;2022-08-19T07:26:53;36.42;;;24.55;;
4569;SDS011;2297;51.442;6.996;2022-08-19T07:29:22;35.47;;;24.30;;
4569;SDS011;2297;51.442;6.996;2022-08-19T07:31:49;42.92;;;27.77;;
4569;SDS011;2297;51.442;6.996;2022-08-19T07:34:17;36.45;;;24.90;;
4569;SDS011;2297;51.442;6.996;2022-08-19T07:36:45;40.22;;;26.23;;
4569;SDS011;2297;51.442;6.996;2022-08-19T07:39:13;36.03;;;25.13;;
4569;SDS011;2297;51.442;6.996;2022-08-19T07:41:41;40.22;;;29.42;;
4569;SDS011;2297;51.442;6.996;2022-08-19T07:44:08;42.55;;;28.60;;
4569;SDS011;2297;51.442;6.996;2022-08-19T07:46:37;44.20;;;30.00;;
4569;SDS011;2297;51.442;6.996;2022-08-19T07:49:06;44.75;;;30.75;;
4569;SDS011;2297;51.442;6.996;2022-08-19T07:51:43;42.65;;;30.00;;
4569;SDS011;2297;51.442;6.996;2022-08-19T07:54:11;48.38;;;31.85;;
4569;SDS011;2297;51.442;6.996;2022-08-19T07:56:37;45.78;;;30.17;;
4569;SDS011;2297;51.442;6.996;2022-08-19T07:59:04;46.90;;;31.85;;
4569;SDS011;2297;51.442;6.996;2022-08-19T08:01:32;49.38;;;32.63;;
4569;SDS011;2297;51.442;6.996;2022-08-19T08:03:59;50.42;;;31.45;;
4569;SDS011;2297;51.442;6.996;2022-08-19T08:06:45;49.63;;;31.13;;
4569;SDS011;2297;51.442;6.996;2022-08-19T08:09:30;60.47;;;38.47;;
4569;SDS011;2297;51.442;6.996;2022-08-19T08:11:59;48.42;;;31.80;;
4569;SDS011;2297;51.442;6.996;2022-08-19T08:14:29;48.53;;;31.83;;
4569;SDS011;2297;51.442;6.996;2022-08-19T08:16:58;49.17;;;32.42;;
4569;SDS011;2297;51.442;6.996;2022-08-19T08:19:25;45.67;;;31.38;;
4569;SDS011;2297;51.442;6.996;2022-08-19T08:21:55;46.97;;;31.35;;
4569;SDS011;2297;51.442;6.996;2022-08-19T08:24:24;45.53;;;31.05;;
4569;SDS011;2297;51.442;6.996;2022-08-19T08:26:51;42.42;;;29.90;;
4569;SDS011;2297;51.442;6.996;2022-08-19T08:29:18;46.95;;;30.60;;
4569;SDS011;2297;51.442;6.996;2022-08-19T08:31:45;37.20;;;25.80;;
4569;SDS011;2297;51.442;6.996;2022-08-19T08:34:13;40.75;;;27.58;;
4569;SDS011;2297;51.442;6.996;2022-08-19T08:36:41;39.03;;;26.77;;
4569;SDS011;2297;51.442;6.996;2022-08-19T08:39:12;38.90;;;24.88;;
4569;SDS011;2297;51.442;6.996;2022-08-19T08:41:42;38.70;;;25.23;;
4569;SDS011;2297;51.442;6.996;2022-08-19T08:44:14;35.75;;;24.73;;
4569;SDS011;2297;51.442;6.996;2022-08-19T08:46:45;36.50;;;23.45;;
4569;SDS011;2297;51.442;6.996;2022-08-19T08:49:20;31.20;;;21.58;;
4569;SDS011;2297;51.442;6.996;2022-08-19T08:51:57;29.55;;;20.40;;
4569;SDS011;2297;51.442;6.996;2022-08-19T08:54:32;31.88;;;20.08;;
4569;SDS011;2297;51.442;6.996;2022-08-19T08:57:04;27.05;;;19.10;;
4569;SDS011;2297;51.442;6.996;2022-08-19T08:59:37;27.45;;;18.20;;
4569;SDS011;2297;51.442;6.996;2022-08-19T09:02:24;29.55;;;20.75;;
4569;SDS011;2297;51.442;6.996;2022-08-19T09:04:51;26.73;;;18.85;;
4569;SDS011;2297;51.442;6.996;2022-08-19T09:07:25;26.25;;;17.02;;
4569;SDS011;2297;51.442;6.996;2022-08-19T09:10:04;26.98;;;18.80;;
4569;SDS011;2297;51.442;6.996;2022-08-19T09:12:38;23.83;;;15.68;;
4569;SDS011;2297;51.442;6.996;2022-08-19T09:15:20;24.75;;;16.00;;
4569;SDS011;2297;51.442;6.996;2022-08-19T09:17:54;28.10;;;16.75;;
4569;SDS011;2297;51.442;6.996;2022-08-19T09:20:24;22.75;;;15.02;;
4569;SDS011;2297;51.442;6.996;2022-08-19T09:22:51;25.10;;;17.00;;
4569;SDS011;2297;51.442;6.996;2022-08-19T09:25:20;29.50;;;17.10;;
4569;SDS011;2297;51.442;6.996;2022-08-19T09:27:49;23.75;;;15.88;;
4569;SDS011;2297;51.442;6.996;2022-08-19T09:30:19;22.67;;;16.45;;
4569;SDS011;2297;51.442;6.996;2022-08-19T09:32:48;21.45;;;14.82;;
4569;SDS011;2297;51.442;6.996;2022-08-19T09:35:17;17.30;;;12.55;;
4569;SDS011;2297;51.442;6.996;2022-08-19T09:37:47;18.92;;;12.75;;
4569;SDS011;2297;51.442;6.996;2022-08-19T09:40:15;24.00;;;12.85;;
4569;SDS011;2297;51.442;6.996;2022-08-19T09:42:43;16.88;;;11.35;;
4569;SDS011;2297;51.442;6.996;2022-08-19T09:45:12;18.60;;;12.32;;
4569;SDS011;2297;51.442;6.996;2022-08-19T09:47:40;15.45;;;11.93;;
4569;SDS011;2297;51.442;6.996;2022-08-19T09:50:07;23.10;;;14.05;;
4569;SDS011;2297;51.442;6.996;2022-08-19T09:52:36;16.38;;;12.32;;
4569;SDS011;2297;51.442;6.996;2022-08-19T09:55:03;20.30;;;13.57;;
4569;SDS011;2297;51.442;6.996;2022-08-19T09:57:30;17.00;;;12.00;;
4569;SDS011;2297;51.442;6.996;2022-08-19T09:59:58;17.20;;;12.45;;
4569;SDS011;2297;51.442;6.996;2022-08-19T10:02:25;26.95;;;17.90;;
4569;SDS011;2297;51.442;6.996;2022-08-19T10:04:52;20.67;;;15.05;;
4569;SDS011;2297;51.442;6.996;2022-08-19T10:07:36;21.35;;;14.80;;
4569;SDS011;2297;51.442;6.996;2022-08-19T10:10:04;24.35;;;16.70;;
4569;SDS011;2297;51.442;6.996;2022-08-19T10:12:32;22.38;;;16.13;;
4569;SDS011;2297;51.442;6.996;2022-08-19T10:15:01;18.52;;;13.27;;
4569;SDS011;2297;51.442;6.996;2022-08-19T10:17:27;27.48;;;17.23;;
4569;SDS011;2297;51.442;6.996;2022-08-19T10:19:57;28.50;;;18.80;;
4569;SDS011;2297;51.442;6.996;2022-08-19T10:22:24;26.25;;;17.42;;
4569;SDS011;2297;51.442;6.996;2022-08-19T10:24:51;22.17;;;16.55;;
4569;SDS011;2297;51.442;6.996;2022-08-19T10:27:18;27.20;;;18.63;;
4569;SDS011;2297;51.442;6.996;2022-08-19T10:33:08;20.92;;;14.32;;
4569;SDS011;2297;51.442;6.996;2022-08-19T10:35:34;23.73;;;15.38;;
4569;SDS011;2297;51.442;6.996;2022-08-19T10:38:01;20.65;;;15.77;;
4569;SDS011;2297;51.442;6.996;2022-08-19T10:40:28;22.10;;;16.58;;
4569;SDS011;2297;51.442;6.996;2022-08-19T10:42:55;24.70;;;17.77;;
4569;SDS011;2297;51.442;6.996;2022-08-19T10:45:37;24.88;;;16.75;;
4569;SDS011;2297;51.442;6.996;2022-08-19T10:48:04;28.05;;;19.88;;
4569;SDS011;2297;51.442;6.996;2022-08-19T10:50:32;34.00;;;20.25;;
4569;SDS011;2297;51.442;6.996;2022-08-19T10:53:16;27.83;;;18.27;;
4569;SDS011;2297;51.442;6.996;2022-08-19T10:55:44;22.85;;;15.52;;
4569;SDS011;2297;51.442;6.996;2022-08-19T10:58:28;24.27;;;17.17;;
4569;SDS011;2297;51.442;6.996;2022-08-19T11:00:57;26.15;;;18.30;;
4569;SDS011;2297;51.442;6.996;2022-08-19T11:03:33;24.73;;;16.77;;
4569;SDS011;2297;51.442;6.996;2022-08-19T11:06:03;21.85;;;16.02;;
4569;SDS011;2297;51.442;6.996;2022-08-19T11:08:32;24.00;;;16.38;;
4569;SDS011;2297;51.442;6.996;2022-08-19T11:11:00;22.83;;;16.63;;
4569;SDS011;2297;51.442;6.996;2022-08-19T11:13:28;19.65;;;14.85;;
4569;SDS011;2297;51.442;6.996;2022-08-19T11:15:56;21.95;;;15.20;;
4569;SDS011;2297;51.442;6.996;2022-08-19T11:18:23;22.23;;;15.52;;
4569;SDS011;2297;51.442;6.996;2022-08-19T11:20:51;22.23;;;16.95;;
4569;SDS011;2297;51.442;6.996;2022-08-19T11:23:19;20.52;;;14.63;;
4569;SDS011;2297;51.442;6.996;2022-08-19T11:25:46;23.05;;;16.48;;
4569;SDS011;2297;51.442;6.996;2022-08-19T11:28:12;20.33;;;14.38;;
4569;SDS011;2297;51.442;6.996;2022-08-19T11:30:39;18.77;;;13.70;;
4569;SDS011;2297;51.442;6.996;2022-08-19T11:33:06;16.98;;;13.50;;
4569;SDS011;2297;51.442;6.996;2022-08-19T11:35:33;17.48;;;12.80;;
4569;SDS011;2297;51.442;6.996;2022-08-19T11:38:00;17.92;;;12.70;;
4569;SDS011;2297;51.442;6.996;2022-08-19T11:40:29;15.55;;;12.60;;
4569;SDS011;2297;51.442;6.996;2022-08-19T11:42:55;14.93;;;11.93;;
4569;SDS011;2297;51.442;6.996;2022-08-19T11:45:22;16.23;;;11.43;;
4569;SDS011;2297;51.442;6.996;2022-08-19T11:47:49;15.25;;;11.35;;
4569;SDS011;2297;51.442;6.996;2022-08-19T11:50:16;13.65;;;9.63;;
4569;SDS011;2297;51.442;6.996;2022-08-19T11:52:43;19.50;;;12.75;;
4569;SDS011;2297;51.442;6.996;2022-08-19T11:58:34;14.48;;;11.45;;
4569;SDS011;2297;51.442;6.996;2022-08-19T12:01:04;12.70;;;10.38;;
4569;SDS011;2297;51.442;6.996;2022-08-19T12:03:32;12.32;;;8.63;;
4569;SDS011;2297;51.442;6.996;2022-08-19T12:06:02;12.68;;;9.40;;
4569;SDS011;2297;51.442;6.996;2022-08-19T12:08:30;13.25;;;9.23;;
4569;SDS011;2297;51.442;6.996;2022-08-19T12:10:57;13.13;;;9.00;;
4569;SDS011;2297;51.442;6.996;2022-08-19T12:13:26;16.83;;;9.98;;
4569;SDS011;2297;51.442;6.996;2022-08-19T12:15:54;10.60;;;9.00;;
4569;SDS011;2297;51.442;6.996;2022-08-19T12:18:21;12.07;;;8.00;;
4569;SDS011;2297;51.442;6.996;2022-08-19T12:20:50;8.98;;;7.55;;
4569;SDS011;2297;51.442;6.996;2022-08-19T12:23:17;10.02;;;7.43;;
4569;SDS011;2297;51.442;6.996;2022-08-19T12:25:44;16.20;;;7.45;;
4569;SDS011;2297;51.442;6.996;2022-08-19T12:28:15;12.48;;;7.72;;
4569;SDS011;2297;51.442;6.996;2022-08-19T12:30:41;14.60;;;8.00;;
4569;SDS011;2297;51.442;6.996;2022-08-19T12:33:10;7.82;;;6.82;;
4569;SDS011;2297;51.442;6.996;2022-08-19T12:35:39;8.35;;;7.13;;
4569;SDS011;2297;51.442;6.996;2022-08-19T12:38:06;12.43;;;7.95;;
4569;SDS011;2297;51.442;6.996;2022-08-19T12:40:33;8.88;;;7.43;;
4569;SDS011;2297;51.442;6.996;2022-08-19T12:43:00;10.75;;;7.75;;
4569;SDS011;2297;51.442;6.996;2022-08-19T12:45:27;8.63;;;6.63;;
4569;SDS011;2297;51.442;6.996;2022-08-19T12:47:53;10.25;;;7.32;;
4569;SDS011;2297;51.442;6.996;2022-08-19T12:53:26;8.45;;;6.13;;
4569;SDS011;2297;51.442;6.996;2022-08-19T12:55:54;6.82;;;5.20;;
4569;SDS011;2297;51.442;6.996;2022-08-19T12:58:22;7.68;;;5.07;;
4569;SDS011;2297;51.442;6.996;2022-08-19T13:00:49;11.82;;;5.25;;
4569;SDS011;2297;51.442;6.996;2022-08-19T13:03:16;5.72;;;4.90;;
4569;SDS011;2297;51.442;6.996;2022-08-19T13:05:43;5.55;;;4.88;;
4569;SDS011;2297;51.442;6.996;2022-08-19T13:08:11;8.30;;;5.72;;
4569;SDS011;2297;51.442;6.996;2022-08-19T13:10:37;6.97;;;5.53;;
4569;SDS011;2297;51.442;6.996;2022-08-19T13:13:05;5.30;;;4.80;;
4569;SDS011;2297;51.442;6.996;2022-08-19T13:15:34;7.40;;;5.30;;
4569;SDS011;2297;51.442;6.996;2022-08-19T13:18:02;7.97;;;4.95;;
4569;SDS011;2297;51.442;6.996;2022-08-19T13:20:29;8.95;;;5.60;;
4569;SDS011;2297;51.442;6.996;2022-08-19T13:22:55;7.22;;;4.97;;
4569;SDS011;2297;51.442;6.996;2022-08-19T13:25:24;9.63;;;7.18;;
4569;SDS011;2297;51.442;6.996;2022-08-19T13:27:51;5.53;;;4.80;;
4569;SDS011;2297;51.442;6.996;2022-08-19T13:30:20;6.95;;;5.13;;
4569;SDS011;2297;51.442;6.996;2022-08-19T13:33:05;6.82;;;4.90;;
4569;SDS011;2297;51.442;6.996;2022-08-19T13:35:39;6.05;;;4.57;;
4569;SDS011;2297;51.442;6.996;2022-08-19T13:38:07;8.88;;;5.55;;
4569;SDS011;2297;51.442;6.996;2022-08-19T13:40:35;5.90;;;4.40;;
4569;SDS011;2297;51.442;6.996;2022-08-19T13:43:03;7.25;;;5.10;;
4569;SDS011;2297;51.442;6.996;2022-08-19T13:45:31;9.50;;;4.70;;
4569;SDS011;2297;51.442;6.996;2022-08-19T13:47:59;9.02;;;5.05;;
4569;SDS011;2297;51.442;6.996;2022-08-19T13:50:31;9.35;;;4.45;;
4569;SDS011;2297;51.442;6.996;2022-08-19T13:52:59;9.63;;;4.70;;
4569;SDS011;2297;51.442;6.996;2022-08-19T13:55:27;7.07;;;4.72;;
4569;SDS011;2297;51.442;6.996;2022-08-19T13:57:55;7.03;;;4.75;;
4569;SDS011;2297;51.442;6.996;2022-08-19T14:00:24;5.60;;;3.80;;
4569;SDS011;2297;51.442;6.996;2022-08-19T14:02:53;6.38;;;4.10;;
4569;SDS011;2297;51.442;6.996;2022-08-19T14:05:22;6.18;;;4.75;;
4569;SDS011;2297;51.442;6.996;2022-08-19T14:07:51;5.63;;;4.18;;
4569;SDS011;2297;51.442;6.996;2022-08-19T14:10:18;5.28;;;4.43;;
4569;SDS011;2297;51.442;6.996;2022-08-19T14:12:46;5.43;;;4.25;;
4569;SDS011;2297;51.442;6.996;2022-08-19T14:15:15;8.30;;;4.70;;
4569;SDS011;2297;51.442;6.996;2022-08-19T14:17:42;5.63;;;4.32;;
4569;SDS011;2297;51.442;6.996;2022-08-19T14:20:11;7.10;;;4.15;;
4569;SDS011;2297;51.442;6.996;2022-08-19T14:22:42;7.35;;;4.65;;
4569;SDS011;2297;51.442;6.996;2022-08-19T14:25:10;9.38;;;5.30;;
4569;SDS011;2297;51.442;6.996;2022-08-19T14:27:39;9.43;;;5.00;;
4569;SDS011;2297;51.442;6.996;2022-08-19T14:30:08;9.48;;;4.88;;
4569;SDS011;2297;51.442;6.996;2022-08-19T14:32:37;6.10;;;4.72;;
4569;SDS011;2297;51.442;6.996;2022-08-19T14:35:05;5.65;;;4.53;;
4569;SDS011;2297;51.442;6.996;2022-08-19T14:37:33;5.10;;;4.47;;
4569;SDS011;2297;51.442;6.996;2022-08-19T14:40:00;5.93;;;4.32;;
4569;SDS011;2297;51.442;6.996;2022-08-19T14:42:27;7.65;;;4.30;;
4569;SDS011;2297;51.442;6.996;2022-08-19T14:44:56;6.10;;;4.25;;
4569;SDS011;2297;51.442;6.996;2022-08-19T14:47:25;6.45;;;4.90;;
4569;SDS011;2297;51.442;6.996;2022-08-19T14:49:53;8.45;;;5.22;;
4569;SDS011;2297;51.442;6.996;2022-08-19T14:52:20;8.32;;;4.55;;
4569;SDS011;2297;51.442;6.996;2022-08-19T14:54:47;5.47;;;4.10;;
4569;SDS011;2297;51.442;6.996;2022-08-19T14:57:14;7.75;;;5.05;;
4569;SDS011;2297;51.442;6.996;2022-08-19T14:59:41;10.55;;;5.13;;
4569;SDS011;2297;51.442;6.996;2022-08-19T15:02:09;7.72;;;5.15;;
4569;SDS011;2297;51.442;6.996;2022-08-19T15:04:36;6.30;;;5.07;;
4569;SDS011;2297;51.442;6.996;2022-08-19T15:07:04;6.43;;;5.53;;
4569;SDS011;2297;51.442;6.996;2022-08-19T15:09:31;8.52;;;5.57;;
4569;SDS011;2297;51.442;6.996;2022-08-19T15:11:58;8.00;;;5.68;;
4569;SDS011;2297;51.442;6.996;2022-08-19T15:14:25;8.02;;;5.88;;
4569;SDS011;2297;51.442;6.996;2022-08-19T15:16:52;5.95;;;5.18;;
4569;SDS011;2297;51.442;6.996;2022-08-19T15:19:19;5.95;;;5.25;;
4569;SDS011;2297;51.442;6.996;2022-08-19T15:21:46;5.55;;;4.70;;
4569;SDS011;2297;51.442;6.996;2022-08-19T15:24:15;7.30;;;4.90;;
4569;SDS011;2297;51.442;6.996;2022-08-19T15:26:42;5.65;;;4.60;;
4569;SDS011;2297;51.442;6.996;2022-08-19T15:29:09;7.40;;;4.63;;
4569;SDS011;2297;51.442;6.996;2022-08-19T15:31:39;11.57;;;4.70;;